Barnstable Municipal Boardman Polando Field
KHYA : now visible

Airfield :











YOU CAN JOIN US ON...

 
LOGIN :

Register | Disclaimer

   EN    FR    IT 

 









Legend :    VFR   Marginal VFR   IFR   Intensive IFR   Very Intensive IFR
Visi :
Ceiling :
>= 8 km
>= 3000ft
5 to 8 km
1000 to 3000 ft
1500m to 5 km
500 to 1000 ft
800 to 1500m
200 to 500 ft
< 800m
< 200 ft
Symbols :   Thunderstorms  Fog  Heavy snow  Heavy precipitations  Wind > 20 kt






- Airport Elevation : 54 ft
- IATA code : HYA


KHYA - Barnstable Municipal Boardman Polando Field

CURRENT METAR :
  • 110556Z AUTO 31006KT 10SM FEW018 FEW050 OVC060 06/04 A3002 RMK AO2 RAB11E50 SLP166 P0001 60012 T00610044 10128 20061 51023

EXPIRED METARs :
  • 110456Z AUTO 33006KT 10SM SCT038 OVC050 07/05 A3002 RMK AO2 RAE50 SLP165 P0003 T00720050 401440072
  • 110356Z AUTO 32005KT 9SM -RA SCT040 OVC050 08/06 A2998 RMK AO2 SLP154 P0005 T00780061
  • 110338Z AUTO 33008KT 5SM -RA BR FEW027 OVC038 08/06 A2998 RMK AO2 P0005 T00780061

TAF KHYA
Valid from the 11 at 06:00 until the 12 at 06:00 UTC


110539Z 1106/1206 33010G20KT 6SM -RA OVC020
FM110900 35010KT 5SM -RA OVC015
FM111100 34012KT 3SM -SNPLRA OVC015
FM111200 34011KT 1SM -SNPL OVC015
FM111400 33010G17KT 1SM -SN OVC015
FM111700 31007KT P6SM OVC090
FM120200 28010G22KT P6SM FEW250



MET'MAP, your aeronautical weather chart ! - Copyright ORBIFLY December 2007 - Disclaimer

ORBIFLY MET'MAP TEAM :

Programming & Development : Alexandra Zaïnal
Concept & original design : Baudouin d'Aumeries
Assistance for programming : Marc-Olivier Méhu
Technical & hardware support : Manuel Goepfert

Contact : metmap@orbifly.com




SOURCES & CREDITS :

   NOAA       Earth
Advisory